Poperinge, Belgium
Current Conditions -  °F | °C
As of 7:53 PM on Sunday 23 Nov 2014 (Local Time) from EBFN Reporting Station
Moderate Rain Moderate Rain  
Wind Chill: 50°   Ceiling: 1500
Heat Index: 50°   Visibility: 2.5mi
Dew Point: 50°   Wind: 15mph
Humidity: 100%   Direction: 350°N
Pressure: 30"   Gusts: NA
Location:  50.85°N, 2.73°E
Report Text: EBFN 231853Z 35013KT 4000 RA FEW007 SCT012 BKN015 10/10 Q1016 GRN
Loading
Personal Weather Stations






























Interactive Weather Map New forecast layout! Learn more

10-Day Weather Forecast

Advertisements
Track Severe Weather on mobile